Time;durP1;ratioP1;P1;durP2;ratioP2;P2;SDS_P1;SDS_P2;PMS_P1;PMS_P2;Temp;Humidity;BMP_temperature;BMP_pressure;BME280_temperature;BME280_humidity;BME280_pressure;Samples;Min_cycle;Max_cycle;Signal;HPM_P1;HPM_P2
2023/06/15 00:00:41;;;;;;;9.53;5.57;;;12.10;22.10;;;;;;5061165;28;46782;-69
2023/06/15 00:03:07;;;;;;;10.23;4.63;;;12.10;22.20;;;;;;5059079;28;46704;-70
2023/06/15 00:05:36;;;;;;;9.57;5.10;;;12.00;22.30;;;;;;5064074;28;46429;-71
2023/06/15 00:08:02;;;;;;;7.43;4.73;;;11.90;22.40;;;;;;5048309;28;46598;-70
2023/06/15 00:10:27;;;;;;;9.77;5.23;;;11.90;22.40;;;;;;5052890;28;47829;-70
2023/06/15 00:12:53;;;;;;;9.63;4.20;;;11.80;22.50;;;;;;5040069;28;46461;-71
2023/06/15 00:15:19;;;;;;;10.30;5.10;;;11.80;22.60;;;;;;5045687;28;46541;-70
2023/06/15 00:17:44;;;;;;;9.20;5.17;;;11.70;22.70;;;;;;5043318;28;46416;-69
2023/06/15 00:20:13;;;;;;;12.20;5.83;;;11.60;22.90;;;;;;5041529;28;46401;-70
2023/06/15 00:22:41;;;;;;;10.27;5.37;;;11.50;23.00;;;;;;5045589;28;46381;-70
2023/06/15 00:25:16;;;;;;;8.77;5.40;;;11.50;23.20;;;;;;5045601;28;46126;-68
2023/06/15 00:27:43;;;;;;;7.87;4.97;;;11.30;23.50;;;;;;5045026;28;46373;-70
2023/06/15 00:30:10;;;;;;;10.07;6.30;;;11.20;23.60;;;;;;5040108;28;46640;-70
2023/06/15 00:32:36;;;;;;;10.30;5.40;;;11.20;23.70;;;;;;5041948;28;46370;-69
2023/06/15 00:35:01;;;;;;;11.20;6.07;;;11.10;24.20;;;;;;5043814;28;46445;-70
2023/06/15 00:37:27;;;;;;;19.17;6.40;;;11.20;24.10;;;;;;5044302;28;46382;-70
2023/06/15 00:39:53;;;;;;;8.07;6.07;;;11.30;24.00;;;;;;5036699;28;48792;-71
2023/06/15 00:42:18;;;;;;;12.70;5.97;;;11.40;23.90;;;;;;5043543;28;46477;-70
2023/06/15 00:44:44;;;;;;;11.07;6.40;;;11.40;23.70;;;;;;5041653;28;46446;-69
2023/06/15 00:47:10;;;;;;;9.00;5.07;;;11.50;23.60;;;;;;5042914;28;45889;-71
2023/06/15 00:49:36;;;;;;;7.80;4.90;;;11.50;23.70;;;;;;5046517;28;46570;-70
2023/06/15 00:52:03;;;;;;;8.57;5.97;;;11.50;23.70;;;;;;5045037;28;46467;-69
2023/06/15 00:54:29;;;;;;;10.73;5.70;;;11.50;23.80;;;;;;5043187;28;46461;-70
2023/06/15 00:56:55;;;;;;;10.70;5.70;;;11.40;23.80;;;;;;5040195;28;46474;-69
2023/06/15 00:59:22;;;;;;;9.83;5.43;;;11.40;24.10;;;;;;5041969;28;46621;-71
2023/06/15 01:01:48;;;;;;;9.63;5.67;;;11.40;24.20;;;;;;5044478;28;46428;-71
2023/06/15 01:04:14;;;;;;;7.77;4.90;;;11.30;24.30;;;;;;5043049;28;46447;-68
2023/06/15 01:06:51;;;;;;;12.40;5.30;;;11.20;24.40;;;;;;5039070;28;47350;-70
2023/06/15 01:09:20;;;;;;;8.70;5.60;;;11.30;24.50;;;;;;5041758;28;48842;-70
2023/06/15 01:11:48;;;;;;;9.03;5.30;;;11.30;24.40;;;;;;5042557;28;47073;-69
2023/06/15 01:14:14;;;;;;;11.03;5.10;;;11.30;24.40;;;;;;5039566;28;46452;-69
2023/06/15 01:16:52;;;;;;;9.00;5.97;;;11.30;24.40;;;;;;5041248;28;46599;-70
2023/06/15 01:19:29;;;;;;;10.13;5.47;;;11.30;24.50;;;;;;5045696;28;48048;-68
2023/06/15 01:22:24;;;;;;;10.03;5.83;;;11.30;24.50;;;;;;5062284;27;45828;-69
2023/06/15 01:25:01;;;;;;;10.80;4.97;;;11.30;24.70;;;;;;5030645;28;46742;-71
2023/06/15 01:27:27;;;;;;;8.60;5.20;;;11.20;24.40;;;;;;5040461;28;46591;-69
2023/06/15 01:29:54;;;;;;;9.13;5.60;;;11.20;25.50;;;;;;5043818;28;46389;-69
2023/06/15 01:32:23;;;;;;;7.07;4.80;;;11.10;24.50;;;;;;5046353;28;46432;-69
2023/06/15 01:34:49;;;;;;;10.67;5.90;;;11.00;24.60;;;;;;5042037;28;46417;-69
2023/06/15 01:37:14;;;;;;;11.10;5.57;;;11.00;24.80;;;;;;5043636;28;46357;-69
2023/06/15 01:39:42;;;;;;;10.50;5.27;;;10.90;24.80;;;;;;5047213;28;49119;-69
2023/06/15 01:42:09;;;;;;;9.90;5.70;;;10.90;25.10;;;;;;5041006;28;46901;-70
2023/06/15 01:44:35;;;;;;;8.83;5.53;;;10.70;25.20;;;;;;5044218;28;46270;-69
2023/06/15 01:47:00;;;;;;;12.27;5.67;;;10.70;25.50;;;;;;5046387;28;46594;-70
2023/06/15 01:49:26;;;;;;;11.50;5.57;;;10.60;25.40;;;;;;5042807;28;48134;-70
2023/06/15 01:51:52;;;;;;;9.20;5.10;;;10.60;25.50;;;;;;5038805;28;46391;-70
2023/06/15 01:54:18;;;;;;;8.90;5.60;;;10.50;25.60;;;;;;5041749;28;46620;-69
2023/06/15 01:56:44;;;;;;;10.83;6.00;;;10.50;25.80;;;;;;5040926;28;46691;-71
2023/06/15 01:59:09;;;;;;;10.67;5.73;;;10.50;26.00;;;;;;5039893;28;48773;-69
2023/06/15 02:01:35;;;;;;;7.80;4.90;;;10.40;25.80;;;;;;5041901;28;46688;-69
2023/06/15 02:04:01;;;;;;;10.43;6.30;;;10.50;26.00;;;;;;5042492;28;46462;-69
2023/06/15 02:06:29;;;;;;;9.23;6.03;;;10.40;25.90;;;;;;5036324;28;46547;-69
2023/06/15 02:08:56;;;;;;;10.07;5.77;;;10.50;26.00;;;;;;5040408;28;47442;-69
2023/06/15 02:11:21;;;;;;;8.83;5.40;;;10.50;25.90;;;;;;5040941;28;46609;-69
2023/06/15 02:13:47;;;;;;;8.97;5.87;;;10.50;26.10;;;;;;5038607;28;46579;-71
2023/06/15 02:16:15;;;;;;;11.90;5.87;;;10.50;26.30;;;;;;5042547;28;46259;-70
2023/06/15 02:18:45;;;;;;;10.90;6.03;;;10.40;26.40;;;;;;5038916;28;46558;-69
2023/06/15 02:21:10;;;;;;;11.23;5.33;;;10.30;26.30;;;;;;5040570;28;46326;-69
2023/06/15 02:23:36;;;;;;;10.73;5.53;;;10.30;26.30;;;;;;5043341;28;46759;-69
2023/06/15 02:26:03;;;;;;;8.53;5.63;;;10.30;26.30;;;;;;5041060;28;46520;-70
2023/06/15 02:28:29;;;;;;;8.77;5.90;;;10.30;26.30;;;;;;5042585;28;46682;-69
2023/06/15 02:30:55;;;;;;;9.50;6.10;;;10.20;26.30;;;;;;5043305;28;46459;-70
2023/06/15 02:33:20;;;;;;;19.47;6.23;;;10.20;26.20;;;;;;5039032;28;46504;-70
2023/06/15 02:35:46;;;;;;;13.43;5.70;;;10.20;26.20;;;;;;5041830;28;46445;-72
2023/06/15 02:38:12;;;;;;;9.87;6.23;;;10.20;26.20;;;;;;5039353;28;49170;-68
2023/06/15 02:40:37;;;;;;;12.03;5.93;;;10.20;26.20;;;;;;5042717;28;46813;-69
2023/06/15 02:43:03;;;;;;;14.87;6.13;;;10.10;26.20;;;;;;5050105;28;46736;-70
2023/06/15 02:45:29;;;;;;;8.13;6.13;;;10.00;26.60;;;;;;5039038;28;46682;-69
2023/06/15 02:47:56;;;;;;;11.50;6.50;;;10.00;26.70;;;;;;5041051;28;46537;-70
2023/06/15 02:50:21;;;;;;;9.20;6.30;;;10.00;26.80;;;;;;5039217;28;46505;-70
2023/06/15 02:52:47;;;;;;;15.43;6.37;;;10.00;26.80;;;;;;5040438;28;46509;-71
2023/06/15 02:55:13;;;;;;;9.60;6.70;;;10.00;26.80;;;;;;5041366;28;46395;-69
2023/06/15 02:57:40;;;;;;;15.90;6.33;;;10.00;26.80;;;;;;5039561;28;46519;-70
2023/06/15 03:00:09;;;;;;;10.23;6.20;;;10.00;26.90;;;;;;5036272;28;45954;-71
2023/06/15 03:02:35;;;;;;;10.47;6.20;;;9.90;27.70;;;;;;5041521;28;46393;-70
2023/06/15 03:05:02;;;;;;;9.90;6.60;;;9.90;27.90;;;;;;5039968;28;46520;-70
2023/06/15 03:07:30;;;;;;;11.13;6.73;;;9.80;28.00;;;;;;5042988;28;47158;-70
2023/06/15 03:09:55;;;;;;;9.23;6.17;;;9.70;28.10;;;;;;5043147;28;46659;-69
2023/06/15 03:12:21;;;;;;;10.23;7.00;;;9.80;28.10;;;;;;5046767;28;45765;-70
2023/06/15 03:14:50;;;;;;;13.63;6.47;;;9.70;28.10;;;;;;5043125;28;46541;-70
2023/06/15 03:17:21;;;;;;;11.63;6.97;;;9.80;28.10;;;;;;5036753;28;48792;-71
2023/06/15 03:19:47;;;;;;;13.80;6.57;;;9.70;28.10;;;;;;5053829;28;46330;-70
2023/06/15 03:22:14;;;;;;;8.57;6.10;;;9.70;28.10;;;;;;5039008;28;46470;-70
2023/06/15 03:24:41;;;;;;;8.47;6.13;;;9.70;28.20;;;;;;5040134;28;46514;-69
2023/06/15 03:27:11;;;;;;;10.60;6.20;;;9.80;28.20;;;;;;5040823;28;48853;-70
2023/06/15 03:29:37;;;;;;;10.87;5.80;;;9.80;28.00;;;;;;5042165;28;46361;-71
2023/06/15 03:32:05;;;;;;;10.73;6.83;;;9.90;27.90;;;;;;5039674;28;46513;-69
2023/06/15 03:34:30;;;;;;;12.80;6.60;;;10.00;27.20;;;;;;5040678;28;46537;-69
2023/06/15 03:36:59;;;;;;;8.50;6.07;;;10.00;27.00;;;;;;5037738;28;48045;-68
2023/06/15 03:39:25;;;;;;;9.17;6.30;;;10.10;27.10;;;;;;5039454;28;46690;-72
2023/06/15 03:41:50;;;;;;;8.97;5.90;;;10.10;27.00;;;;;;5049427;28;46465;-71
2023/06/15 03:44:16;;;;;;;10.93;6.57;;;10.10;27.00;;;;;;5040980;28;46283;-70
2023/06/15 03:46:42;;;;;;;10.53;6.30;;;10.10;27.20;;;;;;5041411;28;46489;-70
2023/06/15 03:49:08;;;;;;;9.57;5.93;;;10.10;27.30;;;;;;5050926;28;46432;-70
2023/06/15 03:51:34;;;;;;;11.17;6.50;;;10.10;27.30;;;;;;5042180;28;46465;-70
2023/06/15 03:53:59;;;;;;;10.77;5.77;;;10.10;27.20;;;;;;5042278;28;46575;-70
2023/06/15 03:56:25;;;;;;;10.40;6.43;;;10.20;27.10;;;;;;5043871;28;47817;-70
2023/06/15 03:58:51;;;;;;;9.00;6.40;;;10.30;27.00;;;;;;5041511;28;46564;-70
2023/06/15 04:01:19;;;;;;;12.23;6.33;;;10.40;27.00;;;;;;5030547;28;46649;-70
2023/06/15 04:03:48;;;;;;;10.93;6.13;;;10.40;26.80;;;;;;5030957;28;46482;-70
2023/06/15 04:06:15;;;;;;;9.77;6.30;;;10.50;26.70;;;;;;5040417;28;48065;-70
2023/06/15 04:08:41;;;;;;;9.80;6.93;;;10.60;26.60;;;;;;5045544;28;45979;-70
2023/06/15 04:11:07;;;;;;;13.23;6.10;;;10.70;26.60;;;;;;5040072;28;46467;-70
2023/06/15 04:13:32;;;;;;;12.13;6.13;;;10.80;26.70;;;;;;5039811;28;46033;-70
2023/06/15 04:15:58;;;;;;;11.87;7.10;;;10.90;26.70;;;;;;5040894;28;48136;-70
2023/06/15 04:18:24;;;;;;;11.00;6.73;;;11.00;26.80;;;;;;5039180;28;46446;-71
2023/06/15 04:20:50;;;;;;;13.30;7.13;;;11.10;26.90;;;;;;5036616;28;46794;-70
2023/06/15 04:23:16;;;;;;;9.93;6.10;;;11.20;26.90;;;;;;5037436;28;46570;-69
2023/06/15 04:25:41;;;;;;;8.67;5.97;;;11.30;26.90;;;;;;5057060;28;46456;-70
2023/06/15 04:28:10;;;;;;;8.53;5.40;;;11.40;26.50;;;;;;5040458;28;46457;-70
2023/06/15 04:30:40;;;;;;;11.20;5.70;;;11.60;26.30;;;;;;5042682;28;46045;-71
2023/06/15 04:33:12;;;;;;;10.20;6.77;;;11.80;26.20;;;;;;5053083;28;46461;-71
2023/06/15 04:35:40;;;;;;;10.40;6.03;;;11.90;26.00;;;;;;5038452;28;48986;-70
2023/06/15 04:38:06;;;;;;;12.07;7.47;;;11.90;25.90;;;;;;5037696;28;46775;-70
2023/06/15 04:40:32;;;;;;;16.10;6.63;;;12.00;26.00;;;;;;5039709;28;46504;-71
2023/06/15 04:42:58;;;;;;;14.03;7.20;;;12.10;26.00;;;;;;5044406;28;46847;-70
2023/06/15 04:45:24;;;;;;;25.57;7.40;;;12.30;25.90;;;;;;5044397;28;46550;-70
2023/06/15 04:47:50;;;;;;;14.23;7.30;;;12.40;25.80;;;;;;5044233;28;46605;-70
2023/06/15 04:50:15;;;;;;;10.63;7.00;;;12.50;25.70;;;;;;5042605;28;46299;-70
2023/06/15 04:52:41;;;;;;;12.07;7.30;;;12.70;25.50;;;;;;5039647;28;46409;-72
2023/06/15 04:55:07;;;;;;;11.07;7.47;;;13.00;25.40;;;;;;5039921;28;48150;-71
2023/06/15 04:57:33;;;;;;;12.47;6.77;;;13.20;25.00;;;;;;5042600;28;46798;-70
2023/06/15 05:00:00;;;;;;;8.60;6.20;;;13.40;24.90;;;;;;5046468;28;45838;-71
2023/06/15 05:02:25;;;;;;;10.93;6.10;;;13.50;24.70;;;;;;5045195;28;46426;-70
2023/06/15 05:04:51;;;;;;;11.63;6.53;;;13.70;24.30;;;;;;5042702;28;48187;-70
2023/06/15 05:07:17;;;;;;;15.10;7.27;;;13.80;24.10;;;;;;5039023;28;46442;-70
2023/06/15 05:09:43;;;;;;;12.30;6.67;;;14.20;23.80;;;;;;5041176;28;46401;-71
2023/06/15 05:12:09;;;;;;;8.70;5.70;;;15.00;23.20;;;;;;5047011;28;46528;-70
2023/06/15 05:14:34;;;;;;;8.97;5.43;;;16.50;21.60;;;;;;5040015;28;47993;-70
2023/06/15 05:17:03;;;;;;;8.03;5.53;;;18.60;18.50;;;;;;5037468;28;46705;-70
2023/06/15 05:19:32;;;;;;;20.97;5.43;;;20.00;15.70;;;;;;5039310;28;46785;-71
2023/06/15 05:22:00;;;;;;;12.40;6.17;;;20.90;14.50;;;;;;5039976;28;45892;-70
2023/06/15 05:24:32;;;;;;;14.30;6.20;;;21.30;13.20;;;;;;5042509;28;47274;-71
2023/06/15 05:26:57;;;;;;;12.43;6.23;;;21.60;12.40;;;;;;5037137;28;46715;-71
2023/06/15 05:29:23;;;;;;;8.50;5.50;;;22.60;11.80;;;;;;5039472;28;46515;-69
2023/06/15 05:31:49;;;;;;;12.03;5.80;;;23.30;10.50;;;;;;5044567;28;46619;-70
2023/06/15 05:34:15;;;;;;;8.27;6.20;;;24.00;9.30;;;;;;5043021;28;48250;-71
2023/06/15 05:36:41;;;;;;;11.50;5.50;;;23.40;9.70;;;;;;5039396;28;46345;-70
2023/06/15 05:39:07;;;;;;;10.10;5.60;;;22.70;10.40;;;;;;5038855;28;45855;-71
2023/06/15 05:41:33;;;;;;;8.60;5.50;;;21.70;11.90;;;;;;5040060;28;46711;-69
2023/06/15 05:44:00;;;;;;;11.03;6.17;;;21.20;12.20;;;;;;5041047;28;46789;-68
2023/06/15 05:46:25;;;;;;;12.03;6.40;;;20.80;11.90;;;;;;5042714;28;46413;-70
2023/06/15 05:48:51;;;;;;;11.70;6.23;;;20.30;12.90;;;;;;5045826;28;46402;-70
2023/06/15 05:51:17;;;;;;;11.60;6.43;;;19.80;13.60;;;;;;5043397;28;46051;-71
2023/06/15 05:53:42;;;;;;;9.43;6.03;;;19.50;14.00;;;;;;5047452;28;46449;-71
2023/06/15 05:56:08;;;;;;;9.07;5.90;;;19.10;14.20;;;;;;5042364;28;46538;-70
2023/06/15 05:58:34;;;;;;;10.97;6.17;;;18.80;14.40;;;;;;5042323;28;46355;-70
2023/06/15 06:01:00;;;;;;;8.00;6.23;;;18.70;14.20;;;;;;5045103;28;45926;-70
2023/06/15 06:03:26;;;;;;;18.90;6.90;;;18.60;14.00;;;;;;5045145;28;46421;-70
2023/06/15 06:05:52;;;;;;;11.23;6.90;;;18.50;15.00;;;;;;5040795;22;45997;-76
2023/06/15 06:08:18;;;;;;;12.40;6.80;;;18.40;14.00;;;;;;5012033;28;46451;-77
2023/06/15 06:10:44;;;;;;;14.17;7.90;;;17.90;14.60;;;;;;5012379;28;46302;-75
2023/06/15 06:13:10;;;;;;;14.00;6.70;;;17.60;15.10;;;;;;5011336;28;46476;-77
2023/06/15 06:15:36;;;;;;;14.70;7.07;;;17.70;15.00;;;;;;5013804;28;46368;-76
2023/06/15 06:18:02;;;;;;;15.23;6.80;;;17.70;14.70;;;;;;5012299;28;46427;-78
2023/06/15 06:20:27;;;;;;;15.30;7.63;;;17.60;14.90;;;;;;5014263;28;46849;-78
2023/06/15 06:22:53;;;;;;;12.10;7.30;;;17.50;15.20;;;;;;5014435;28;47264;-77
2023/06/15 06:25:19;;;;;;;10.60;6.50;;;17.40;15.60;;;;;;5013132;28;46420;-77
2023/06/15 06:27:44;;;;;;;14.60;7.17;;;17.40;15.70;;;;;;5012031;28;46614;-77
2023/06/15 06:30:10;;;;;;;9.57;6.43;;;17.40;15.80;;;;;;5010024;28;46593;-77
2023/06/15 06:32:36;;;;;;;17.60;7.83;;;17.50;16.00;;;;;;5014818;28;46389;-77
2023/06/15 06:35:03;;;;;;;11.80;7.83;;;17.50;16.10;;;;;;5011741;28;46544;-76
2023/06/15 06:37:28;;;;;;;10.60;7.27;;;17.50;16.40;;;;;;5015735;28;46448;-77
2023/06/15 06:39:54;;;;;;;12.00;6.73;;;17.70;16.10;;;;;;5009487;28;46435;-77
2023/06/15 06:42:19;;;;;;;11.13;6.73;;;17.70;16.30;;;;;;5009040;28;47848;-77
2023/06/15 06:44:45;;;;;;;17.70;7.03;;;18.00;16.20;;;;;;5011946;28;47077;-77
2023/06/15 06:47:10;;;;;;;11.20;6.73;;;18.10;16.70;;;;;;5009997;28;46435;-77
2023/06/15 06:49:36;;;;;;;11.70;7.30;;;18.40;16.40;;;;;;5012127;28;46485;-77
2023/06/15 06:52:02;;;;;;;12.37;7.50;;;18.70;15.90;;;;;;5015872;28;46137;-77
2023/06/15 06:54:27;;;;;;;12.27;6.70;;;18.70;16.00;;;;;;5015456;28;46419;-76
2023/06/15 06:56:53;;;;;;;11.07;6.80;;;18.90;15.90;;;;;;5012928;28;46434;-76
2023/06/15 06:59:18;;;;;;;12.60;6.77;;;19.40;15.30;;;;;;5007037;28;46692;-77
2023/06/15 07:01:44;;;;;;;11.30;5.90;;;19.50;15.10;;;;;;5009549;28;46574;-77
2023/06/15 07:04:10;;;;;;;11.40;5.80;;;19.60;14.60;;;;;;5009228;28;46523;-75
2023/06/15 07:06:35;;;;;;;12.53;6.60;;;19.90;14.20;;;;;;5013182;28;46850;-77
2023/06/15 07:09:01;;;;;;;13.40;5.60;;;19.90;14.00;;;;;;5012535;28;46477;-77
2023/06/15 07:11:27;;;;;;;7.87;5.33;;;19.90;14.00;;;;;;5011864;28;47651;-77
2023/06/15 07:13:53;;;;;;;10.53;5.67;;;20.00;13.90;;;;;;5012883;28;46527;-76
2023/06/15 07:16:19;;;;;;;9.77;6.00;;;20.20;13.50;;;;;;5011530;28;45844;-77
2023/06/15 07:18:44;;;;;;;10.00;6.00;;;20.40;13.20;;;;;;5013653;28;45858;-77
2023/06/15 07:21:10;;;;;;;12.53;5.60;;;20.30;12.80;;;;;;5013033;28;46467;-77
2023/06/15 07:23:35;;;;;;;13.60;5.43;;;20.20;13.10;;;;;;5017442;28;46794;-77
2023/06/15 07:26:01;;;;;;;6.53;4.00;;;20.20;13.10;;;;;;5013562;28;47877;-76
2023/06/15 07:28:26;;;;;;;11.63;5.50;;;20.40;12.70;;;;;;5012033;28;46217;-78
2023/06/15 07:30:52;;;;;;;10.77;6.10;;;20.70;11.80;;;;;;5015442;28;46643;-77
2023/06/15 07:33:18;;;;;;;9.23;5.40;;;20.90;11.90;;;;;;5014747;28;46719;-76
2023/06/15 07:35:44;;;;;;;7.97;4.87;;;21.00;11.70;;;;;;5013510;28;45930;-77
2023/06/15 07:38:10;;;;;;;15.40;6.57;;;21.20;11.10;;;;;;5016520;28;46439;-77
2023/06/15 07:40:36;;;;;;;8.53;5.30;;;21.50;10.70;;;;;;5014180;28;48157;-76
2023/06/15 07:43:02;;;;;;;10.87;4.13;;;21.50;10.70;;;;;;5013615;28;46509;-76
2023/06/15 07:45:27;;;;;;;10.67;5.40;;;21.50;10.30;;;;;;5016947;28;45827;-77
2023/06/15 07:47:53;;;;;;;6.83;4.50;;;21.60;10.30;;;;;;5016052;28;46399;-76
2023/06/15 07:50:18;;;;;;;8.03;5.03;;;21.90;9.80;;;;;;5015402;28;46684;-78
2023/06/15 07:52:44;;;;;;;8.87;5.17;;;22.00;9.30;;;;;;5020163;28;46968;-75
2023/06/15 07:55:10;;;;;;;9.83;5.40;;;22.10;9.20;;;;;;5014536;28;46319;-79
2023/06/15 07:57:35;;;;;;;12.80;5.90;;;22.20;9.00;;;;;;5011987;28;46277;-77
2023/06/15 08:00:06;;;;;;;11.27;6.10;;;22.20;8.80;;;;;;5031773;28;48000;-76
2023/06/15 08:02:32;;;;;;;9.33;4.57;;;22.10;8.50;;;;;;5024090;28;46319;-76
2023/06/15 08:04:57;;;;;;;9.93;4.90;;;22.10;8.80;;;;;;5034433;28;45911;-77
2023/06/15 08:07:23;;;;;;;10.80;5.23;;;22.40;8.30;;;;;;5015790;28;46540;-76
2023/06/15 08:09:48;;;;;;;11.70;5.97;;;22.40;7.70;;;;;;5011021;28;46502;-76
2023/06/15 08:12:14;;;;;;;7.63;4.27;;;22.60;7.50;;;;;;5014083;28;46376;-77
2023/06/15 08:14:40;;;;;;;7.57;4.60;;;22.70;7.30;;;;;;5014115;28;46292;-75
2023/06/15 08:17:05;;;;;;;8.20;4.03;;;22.70;6.80;;;;;;5015887;28;46363;-75
2023/06/15 08:19:31;;;;;;;7.37;4.27;;;22.80;6.80;;;;;;5015579;28;46403;-77
2023/06/15 08:21:57;;;;;;;9.67;4.53;;;23.10;6.50;;;;;;5015866;28;46492;-76
2023/06/15 08:24:22;;;;;;;7.67;5.07;;;23.30;6.00;;;;;;5013706;28;46443;-76
2023/06/15 08:26:51;;;;;;;13.50;5.67;;;23.20;5.90;;;;;;5012994;28;45859;-75
2023/06/15 08:29:18;;;;;;;10.40;5.17;;;23.10;6.40;;;;;;5014171;28;46460;-77
2023/06/15 08:31:43;;;;;;;7.27;5.20;;;23.30;6.40;;;;;;5014222;28;45891;-77
2023/06/15 08:34:09;;;;;;;10.30;5.50;;;23.50;6.20;;;;;;5012503;28;46492;-76
2023/06/15 08:36:35;;;;;;;10.10;5.33;;;23.40;7.20;;;;;;5016164;28;46249;-76
2023/06/15 08:39:01;;;;;;;15.23;5.27;;;23.50;6.30;;;;;;5013027;28;46959;-76
2023/06/15 08:41:27;;;;;;;10.33;5.03;;;23.20;6.20;;;;;;5013101;28;46448;-76
2023/06/15 08:43:53;;;;;;;8.93;4.30;;;23.40;5.80;;;;;;5016719;28;46447;-76
2023/06/15 08:46:21;;;;;;;8.20;3.80;;;23.50;5.20;;;;;;5013818;28;46411;-77
2023/06/15 08:48:50;;;;;;;7.43;4.20;;;23.50;4.90;;;;;;5013151;28;48328;-77
2023/06/15 08:51:16;;;;;;;6.10;4.00;;;23.50;4.60;;;;;;5013695;28;46824;-77
2023/06/15 08:53:43;;;;;;;12.70;4.30;;;23.00;4.40;;;;;;5011337;28;46396;-77
2023/06/15 08:56:12;;;;;;;10.70;4.40;;;22.80;4.50;;;;;;5013723;28;46638;-78
2023/06/15 08:58:39;;;;;;;13.93;4.80;;;22.70;4.30;;;;;;5014646;28;46410;-77
2023/06/15 09:01:06;;;;;;;9.70;4.37;;;22.80;4.30;;;;;;5012750;28;46551;-77
2023/06/15 09:03:33;;;;;;;7.50;4.27;;;22.90;3.70;;;;;;5014536;28;46344;-76
2023/06/15 09:05:59;;;;;;;6.77;3.97;;;23.10;3.40;;;;;;5016749;28;46402;-77
2023/06/15 09:08:24;;;;;;;9.67;4.20;;;22.90;3.50;;;;;;5014234;28;46440;-77
2023/06/15 09:10:50;;;;;;;10.37;4.10;;;23.10;4.60;;;;;;5011430;28;46614;-76
2023/06/15 09:13:16;;;;;;;7.07;4.03;;;22.90;3.20;;;;;;5013417;28;46466;-76
2023/06/15 09:15:43;;;;;;;10.00;4.10;;;22.80;3.40;;;;;;5016600;28;46646;-75
2023/06/15 09:18:10;;;;;;;8.13;3.60;;;22.80;3.40;;;;;;5014993;28;46713;-77
2023/06/15 09:20:40;;;;;;;7.03;3.60;;;23.10;3.50;;;;;;5014065;28;46458;-76
2023/06/15 09:23:10;;;;;;;7.07;3.53;;;23.10;2.90;;;;;;5013330;28;47080;-77
2023/06/15 09:25:36;;;;;;;8.20;4.07;;;23.10;2.70;;;;;;5012976;28;46526;-76
2023/06/15 09:28:08;;;;;;;6.93;3.50;;;23.30;2.20;;;;;;5012447;28;46474;-79
2023/06/15 09:30:36;;;;;;;8.03;3.70;;;23.40;2.30;;;;;;5013496;28;46498;-76
2023/06/15 09:33:16;;;;;;;9.03;3.93;;;23.40;2.40;;;;;;5015853;28;46496;-78
2023/06/15 09:36:02;;;;;;;8.47;3.70;;;23.70;2.50;;;;;;5012640;28;46523;-77
2023/06/15 09:38:44;;;;;;;7.63;3.80;;;23.90;1.80;;;;;;5012686;28;46551;-77
2023/06/15 09:41:09;;;;;;;6.70;3.40;;;24.30;1.00;;;;;;5016394;28;46643;-76
2023/06/15 09:43:38;;;;;;;6.23;3.60;;;24.10;1.00;;;;;;5008997;28;46517;-75
2023/06/15 09:46:11;;;;;;;12.87;3.63;;;24.10;1.00;;;;;;5011528;28;46625;-78
2023/06/15 09:48:38;;;;;;;7.00;4.10;;;24.40;1.00;;;;;;5027822;28;48388;-77
2023/06/15 09:51:03;;;;;;;6.20;3.60;;;25.20;1.00;;;;;;5012785;28;46397;-78
2023/06/15 09:53:33;;;;;;;7.50;3.80;;;25.60;1.00;;;;;;5009202;28;47045;-77
2023/06/15 09:56:00;;;;;;;6.93;3.97;;;25.80;1.00;;;;;;5013397;28;46506;-79
2023/06/15 09:58:26;;;;;;;8.90;4.40;;;25.90;1.00;;;;;;5012823;28;46460;-77
2023/06/15 10:00:57;;;;;;;8.60;4.33;;;25.60;1.00;;;;;;5008000;28;46793;-78
2023/06/15 10:03:25;;;;;;;6.73;3.90;;;25.60;1.00;;;;;;5009165;28;46666;-77
2023/06/15 10:05:58;;;;;;;7.60;4.00;;;25.50;1.00;;;;;;5008673;28;46483;-76
2023/06/15 10:08:26;;;;;;;11.30;3.20;;;25.40;1.00;;;;;;5012013;28;46194;-77
2023/06/15 10:10:54;;;;;;;7.53;4.20;;;25.80;1.00;;;;;;5009053;28;46520;-77
2023/06/15 10:13:33;;;;;;;8.70;3.70;;;26.20;1.00;;;;;;5008919;28;47156;-76
2023/06/15 10:16:02;;;;;;;10.63;3.43;;;26.40;1.00;;;;;;5007911;28;46447;-77
2023/06/15 10:18:30;;;;;;;6.93;3.50;;;26.30;1.00;;;;;;5006536;28;46490;-77
2023/06/15 10:20:59;;;;;;;7.33;3.70;;;26.40;1.00;;;;;;5012690;28;46370;-77
2023/06/15 10:23:27;;;;;;;10.37;3.80;;;26.70;1.00;;;;;;5009416;28;46473;-78
2023/06/15 10:25:58;;;;;;;6.33;4.37;;;26.90;1.00;;;;;;5009496;28;46472;-78
2023/06/15 10:28:32;;;;;;;9.80;4.20;;;26.60;1.00;;;;;;5007146;28;47372;-77
2023/06/15 10:31:12;;;;;;;6.80;3.90;;;26.40;1.00;;;;;;5010999;28;46688;-79
2023/06/15 10:34:06;;;;;;;13.53;4.10;;;26.20;1.00;;;;;;5023875;28;46633;-78
2023/06/15 10:36:41;;;;;;;6.70;4.37;;;25.90;1.00;;;;;;5011471;28;46428;-78
2023/06/15 10:39:19;;;;;;;7.80;3.30;;;25.70;1.00;;;;;;5006576;28;47339;-79
2023/06/15 10:41:45;;;;;;;7.83;3.83;;;25.90;1.00;;;;;;5009719;28;46414;-78
2023/06/15 10:44:17;;;;;;;5.67;3.97;;;25.90;1.00;;;;;;5007806;28;46488;-77
2023/06/15 10:46:43;;;;;;;6.77;4.00;;;25.80;1.00;;;;;;5009176;28;46471;-77
2023/06/15 10:49:10;;;;;;;7.87;4.13;;;25.50;1.00;;;;;;5009533;28;46505;-78
2023/06/15 10:51:40;;;;;;;6.80;3.83;;;25.30;1.00;;;;;;5006196;28;46492;-77
2023/06/15 10:54:23;;;;;;;6.70;4.10;;;25.70;1.00;;;;;;5005695;28;46372;-76
2023/06/15 10:56:57;;;;;;;8.27;4.43;;;25.80;1.00;;;;;;5007432;28;46585;-79
2023/06/15 10:59:54;;;;;;;9.97;3.80;;;25.80;1.00;;;;;;5009834;28;46423;-76
2023/06/15 11:02:28;;;;;;;9.33;3.87;;;26.00;1.00;;;;;;5023388;28;46484;-78
2023/06/15 11:05:02;;;;;;;6.10;4.20;;;25.50;1.00;;;;;;5010512;28;46626;-77
2023/06/15 11:07:34;;;;;;;9.43;4.20;;;25.40;1.00;;;;;;5006163;28;46369;-76
2023/06/15 11:10:09;;;;;;;16.47;4.50;;;25.10;1.00;;;;;;5007774;28;46598;-78
2023/06/15 11:12:39;;;;;;;11.50;4.20;;;24.80;1.00;;;;;;5021605;28;46373;-77
2023/06/15 11:15:08;;;;;;;6.80;4.00;;;24.80;1.00;;;;;;5005513;28;47080;-78
2023/06/15 11:17:57;;;;;;;7.77;3.70;;;24.40;1.00;;;;;;5005778;28;46380;-79
2023/06/15 11:20:38;;;;;;;9.50;4.60;;;24.30;1.00;;;;;;5007147;28;46530;-76
2023/06/15 11:23:16;;;;;;;10.93;4.50;;;24.50;1.00;;;;;;5008117;28;46483;-75
2023/06/15 11:25:48;;;;;;;8.57;3.40;;;24.50;1.00;;;;;;5011679;28;46475;-76
2023/06/15 11:28:24;;;;;;;11.00;4.10;;;24.70;1.00;;;;;;5008092;28;46839;-77
2023/06/15 11:30:53;;;;;;;10.00;3.77;;;24.50;1.00;;;;;;5005782;28;48125;-77
2023/06/15 11:33:36;;;;;;;15.33;4.13;;;24.60;1.00;;;;;;5006074;28;46799;-79
2023/06/15 11:36:04;;;;;;;7.00;4.27;;;24.80;1.00;;;;;;5010256;28;45814;-78
2023/06/15 11:38:30;;;;;;;11.60;4.03;;;25.00;1.00;;;;;;5009437;28;46747;-77
2023/06/15 11:41:10;;;;;;;7.23;3.90;;;25.10;1.00;;;;;;5005562;28;49095;-77
2023/06/15 11:43:40;;;;;;;9.27;4.43;;;25.20;1.00;;;;;;5014803;28;46616;-79
2023/06/15 11:46:12;;;;;;;6.50;3.60;;;25.60;1.00;;;;;;5016810;28;46668;-79
2023/06/15 11:48:45;;;;;;;7.20;3.73;;;26.10;1.00;;;;;;5009739;28;46727;-77
2023/06/15 11:51:12;;;;;;;4.73;3.03;;;26.80;1.00;;;;;;5009517;28;49253;-77
2023/06/15 11:53:47;;;;;;;5.80;3.63;;;26.80;1.00;;;;;;5024100;28;46603;-76
2023/06/15 11:56:15;;;;;;;5.63;3.47;;;27.30;1.00;;;;;;5009756;28;46478;-78
2023/06/15 11:58:42;;;;;;;11.17;3.10;;;27.30;1.00;;;;;;5007237;28;46439;-78
2023/06/15 12:01:11;;;;;;;7.47;3.83;;;26.70;1.00;;;;;;5011811;28;46235;-77
2023/06/15 12:03:39;;;;;;;6.17;3.80;;;26.20;1.00;;;;;;5007878;28;46424;-78
2023/06/15 12:06:06;;;;;;;6.70;3.83;;;26.10;1.00;;;;;;5008186;28;46936;-78
2023/06/15 12:08:32;;;;;;;5.33;3.20;;;25.50;1.00;;;;;;5010872;28;46614;-78
2023/06/15 12:10:58;;;;;;;7.87;3.70;;;25.80;1.00;;;;;;5009900;28;47014;-75
2023/06/15 12:13:25;;;;;;;8.13;3.63;;;25.90;1.00;;;;;;5011341;28;46835;-78
2023/06/15 12:15:51;;;;;;;9.23;3.50;;;25.50;1.00;;;;;;5010983;28;46817;-76
2023/06/15 12:18:19;;;;;;;10.07;3.30;;;25.00;1.00;;;;;;5011639;28;46715;-80
2023/06/15 12:20:47;;;;;;;7.00;4.13;;;24.80;1.00;;;;;;5010845;28;46953;-80
2023/06/15 12:23:29;;;;;;;10.53;3.80;;;24.60;1.00;;;;;;5014813;28;47101;-79
2023/06/15 12:25:56;;;;;;;7.47;3.70;;;24.60;1.00;;;;;;5017653;28;46383;-77
2023/06/15 12:28:25;;;;;;;9.47;4.17;;;24.60;1.00;;;;;;5011644;28;46755;-74
2023/06/15 12:30:56;;;;;;;6.83;3.63;;;24.60;1.00;;;;;;5009932;28;46391;-79
2023/06/15 12:33:26;;;;;;;10.13;4.03;;;24.50;1.00;;;;;;5011712;28;47056;-79
2023/06/15 12:35:52;;;;;;;5.67;3.70;;;24.60;1.00;;;;;;5012005;28;46553;-79
2023/06/15 12:38:19;;;;;;;7.77;3.70;;;24.80;1.00;;;;;;5015044;28;46483;-78
2023/06/15 12:40:45;;;;;;;7.23;3.90;;;25.00;1.00;;;;;;5013346;28;46601;-75
2023/06/15 12:43:11;;;;;;;6.20;3.33;;;25.10;1.00;;;;;;5011135;28;46471;-78
2023/06/15 12:45:36;;;;;;;8.70;4.33;;;24.90;1.00;;;;;;5011970;28;46441;-77
2023/06/15 12:48:04;;;;;;;6.47;3.90;;;24.80;1.00;;;;;;5010853;28;46749;-76